Terminal Aerodrome Forecast
Issued by NWS

Home | Current Version | Previous Version | Text Only | Print | Product List | Glossary Off
Versions: 1 2 3 4 5 6 7 8 9 10 11 12 13 14

000
FTUS43 KGRB 020520
TAFMTW
TAF
KMTW 020520Z 0206/0306 36007KT P6SM BKN040 BKN100
     FM020900 36007KT P6SM FEW040 SCT100
     FM021100 01007KT P6SM FEW100
     FM021600 03006KT P6SM SCT050 BKN090
     FM022300 VRB03KT P6SM SCT100=

USA.gov is the U.S. government's official web portal to all federal, state and local government web resources and services.